Terminal Aerodrome Forecast
Issued by NWS

Home | Current Version | Previous Version | Graphics & Text | Print | Product List | Glossary On
Versions: 1 2 3 4 5 6 7 8 9 10 11 12 13
000
FTUS43 KMPX 241734
TAFRWF
TAF
KRWF 241734Z 2418/2518 31014G23KT P6SM BKN100 BKN200
     FM250100 29007KT P6SM BKN100 BKN200
     FM250300 27004KT P6SM SKC=

USA.gov is the U.S. government's official web portal to all federal, state and local government web resources and services.